createdAt,value
2022-10-29T00:02:02.325Z,99852.81
2022-10-29T00:04:31.952Z,99841.59
2022-10-29T00:07:03.054Z,99835.59
2022-10-29T00:09:32.235Z,99839.88
2022-10-29T00:12:01.509Z,99846.75
2022-10-29T00:14:35.663Z,99845.91
2022-10-29T00:17:04.992Z,99845.00
2022-10-29T00:19:34.026Z,99845.91
2022-10-29T00:22:05.278Z,99844.19
2022-10-29T00:24:34.639Z,99839.03
2022-10-29T00:27:08.808Z,99837.28
2022-10-29T00:29:37.944Z,99845.03
2022-10-29T00:32:07.323Z,99853.66
2022-10-29T00:34:36.520Z,99839.06
2022-10-29T00:37:07.729Z,99848.50
2022-10-29T00:39:36.862Z,99837.31
2022-10-29T00:42:06.451Z,99843.31
2022-10-29T00:44:38.547Z,99835.59
2022-10-29T00:47:21.156Z,99835.56
2022-10-29T00:50:00.026Z,99839.06
2022-10-29T00:52:34.993Z,99825.25
2022-10-29T00:55:09.089Z,99819.31
2022-10-29T00:57:41.508Z,99825.28
2022-10-29T01:00:14.275Z,99818.41
2022-10-29T01:02:45.660Z,99827.03
2022-10-29T01:05:23.319Z,99814.16
2022-10-29T01:07:54.474Z,99804.72
2022-10-29T01:10:33.367Z,99822.75
2022-10-29T01:13:19.757Z,99814.16
2022-10-29T01:16:00.180Z,99796.13
2022-10-29T01:18:37.517Z,99811.56
2022-10-29T01:21:52.022Z,99800.38
2022-10-29T01:24:52.000Z,99803.91
2022-10-29T01:27:51.463Z,99805.63
2022-10-29T01:30:39.257Z,99800.50
2022-10-29T01:33:23.088Z,99799.69
2022-10-29T01:36:00.204Z,99798.00
2022-10-29T01:38:38.183Z,99786.00
2022-10-29T01:41:14.431Z,99786.03
2022-10-29T01:46:29.482Z,99779.16
2022-10-29T01:49:07.166Z,99775.72
2022-10-29T01:51:38.454Z,99773.16
2022-10-29T01:54:13.824Z,99775.72
2022-10-29T01:56:44.653Z,99763.69
2022-10-29T01:59:28.672Z,99773.13
2022-10-29T02:02:14.388Z,99770.56
2022-10-29T02:05:00.954Z,99766.25
2022-10-29T02:07:40.404Z,99761.13
2022-10-29T02:10:18.798Z,99762.81
2022-10-29T02:12:51.038Z,99755.97
2022-10-29T02:15:33.759Z,99752.56
2022-10-29T02:18:04.975Z,99754.28
2022-10-29T02:20:46.914Z,99743.97
2022-10-29T02:23:17.629Z,99745.66
2022-10-29T02:25:58.375Z,99735.38
2022-10-29T02:28:32.566Z,99743.97
2022-10-29T02:31:01.765Z,99738.81
2022-10-29T02:33:30.945Z,99736.22
2022-10-29T02:36:02.305Z,99739.69
2022-10-29T02:38:31.456Z,99734.53
2022-10-29T02:41:00.476Z,99737.09
2022-10-29T02:43:29.644Z,99731.94
2022-10-29T02:46:15.451Z,99730.22
2022-10-29T02:48:50.036Z,99730.25
2022-10-29T02:51:21.185Z,99723.38
2022-10-29T02:53:50.559Z,99721.69
2022-10-29T02:56:19.555Z,99720.84
2022-10-29T02:58:48.822Z,99725.13
2022-10-29T03:01:18.007Z,99714.81
2022-10-29T03:03:47.223Z,99718.25
2022-10-29T03:06:17.488Z,99716.53
2022-10-29T03:08:54.044Z,99714.81
2022-10-29T03:11:28.297Z,99705.34
2022-10-29T03:13:57.757Z,99700.19
2022-10-29T03:16:26.953Z,99697.59
2022-10-29T03:18:55.954Z,99690.75
2022-10-29T03:21:25.351Z,99689.00
2022-10-29T03:23:56.576Z,99690.69
2022-10-29T03:26:25.764Z,99667.50
2022-10-29T03:28:54.802Z,99675.19
2022-10-29T03:31:23.864Z,99676.06
2022-10-29T03:33:58.224Z,99667.47
2022-10-29T03:36:27.381Z,99664.03
2022-10-29T03:38:58.405Z,99674.34
2022-10-29T03:41:38.858Z,99668.28
2022-10-29T03:44:13.061Z,99665.63
2022-10-29T03:46:42.113Z,99663.84
2022-10-29T03:49:11.178Z,99651.75
2022-10-29T03:51:45.359Z,99639.78
2022-10-29T03:54:16.424Z,99650.81
2022-10-29T03:56:45.526Z,99661.09
2022-10-29T04:01:49.760Z,99652.50
2022-10-29T04:04:18.862Z,99655.91
2022-10-29T04:06:48.044Z,99657.63
2022-10-29T04:09:19.419Z,99649.03
2022-10-29T04:11:48.895Z,99655.88
2022-10-29T04:14:18.351Z,99644.69
2022-10-29T04:19:22.648Z,99638.69
2022-10-29T04:24:32.522Z,99635.25
2022-10-29T04:27:08.072Z,99626.69
2022-10-29T04:28:41.446Z,99624.97
2022-10-29T04:30:37.459Z,99616.41
2022-10-29T04:33:06.576Z,99604.34
2022-10-29T04:35:35.767Z,99601.72
2022-10-29T04:38:11.098Z,99601.66
2022-10-29T04:40:42.272Z,99598.19
2022-10-29T04:43:11.392Z,99595.56
2022-10-29T04:45:40.576Z,99592.13
2022-10-29T04:48:10.416Z,99595.53
2022-10-29T04:50:40.338Z,99596.38
2022-10-29T04:53:10.407Z,99585.19
2022-10-29T04:55:41.871Z,99584.22
2022-10-29T04:58:16.324Z,99582.41
2022-10-29T05:00:46.120Z,99571.16
2022-10-29T05:03:20.326Z,99571.09
2022-10-29T05:05:49.492Z,99571.03
2022-10-29T05:08:18.513Z,99571.00
2022-10-29T05:10:54.685Z,99564.09
2022-10-29T05:13:23.946Z,99563.25
2022-10-29T05:15:53.859Z,99559.78
2022-10-29T05:18:28.505Z,99559.72
2022-10-29T05:20:58.339Z,99570.00
2022-10-29T05:23:27.577Z,99553.56
2022-10-29T05:25:59.224Z,99558.69
2022-10-29T05:28:28.473Z,99558.69
2022-10-29T05:30:57.546Z,99559.56
2022-10-29T05:33:31.854Z,99545.81
2022-10-29T05:36:01.873Z,99550.97
2022-10-29T05:38:33.287Z,99561.28
2022-10-29T05:41:05.041Z,99554.34
2022-10-29T05:43:39.224Z,99561.16
2022-10-29T05:46:08.416Z,99553.34
2022-10-29T05:48:37.770Z,99545.56
2022-10-29T05:51:07.240Z,99542.88
2022-10-29T05:53:36.609Z,99542.84
2022-10-29T05:56:08.997Z,99539.34
2022-10-29T05:58:38.248Z,99535.81
2022-10-29T06:01:08.905Z,99527.16
2022-10-29T06:03:43.146Z,99528.78
2022-10-29T06:06:12.274Z,99531.31
2022-10-29T06:08:44.160Z,99523.50
2022-10-29T06:11:15.344Z,99525.22
2022-10-29T06:13:44.449Z,99506.38
2022-10-29T06:16:13.515Z,99503.00
2022-10-29T06:18:48.114Z,99525.31
2022-10-29T06:21:17.221Z,99520.97
2022-10-29T06:23:53.734Z,99520.06
2022-10-29T06:26:25.049Z,99513.88
2022-10-29T06:31:39.509Z,99505.94
2022-10-29T06:34:08.647Z,99503.31
2022-10-29T06:36:42.693Z,99499.06
2022-10-29T06:39:11.838Z,99504.34
2022-10-29T06:41:43.103Z,99493.88
2022-10-29T06:44:15.313Z,99488.56
2022-10-29T06:46:44.441Z,99485.06
2022-10-29T06:49:13.468Z,99479.88
2022-10-29T06:51:42.606Z,99466.94
2022-10-29T06:54:11.808Z,99468.59
2022-10-29T06:56:42.947Z,99470.34
2022-10-29T06:59:12.209Z,99472.13
2022-10-29T07:01:41.368Z,99473.03
2022-10-29T07:04:10.511Z,99462.72
2022-10-29T07:06:39.583Z,99466.22
2022-10-29T07:09:08.877Z,99455.97
2022-10-29T07:11:37.936Z,99463.78
2022-10-29T07:14:14.515Z,99452.66
2022-10-29T07:16:43.716Z,99456.94
2022-10-29T07:19:12.691Z,99447.41
2022-10-29T07:21:45.964Z,99425.16
2022-10-29T07:24:17.184Z,99438.84
2022-10-29T07:26:46.275Z,99444.03
2022-10-29T07:29:17.521Z,99437.09
2022-10-29T07:31:49.150Z,99433.72
2022-10-29T07:34:18.631Z,99426.84
2022-10-29T07:36:47.588Z,99418.31
2022-10-29T07:39:16.933Z,99430.41
2022-10-29T07:41:46.130Z,99430.41
2022-10-29T07:44:22.687Z,99425.13
2022-10-29T07:46:51.920Z,99422.44
2022-10-29T07:49:21.475Z,99404.50
2022-10-29T07:51:55.903Z,99388.09
2022-10-29T07:54:25.096Z,99405.13
2022-10-29T07:56:54.293Z,99395.63
2022-10-29T07:59:25.400Z,99384.38
2022-10-29T08:01:54.713Z,99387.63
2022-10-29T08:04:24.048Z,99379.88
2022-10-29T08:06:53.268Z,99387.31
2022-10-29T08:09:27.449Z,99365.47
2022-10-29T08:11:56.659Z,99357.75
2022-10-29T08:14:27.723Z,99367.91
2022-10-29T08:16:56.960Z,99370.44
2022-10-29T08:19:26.005Z,99354.19
2022-10-29T08:21:55.239Z,99351.94
2022-10-29T08:24:24.863Z,99339.84
2022-10-29T08:26:54.331Z,99348.69
2022-10-29T08:29:24.437Z,99352.38
2022-10-29T08:32:00.992Z,99342.16
2022-10-29T08:34:30.322Z,99339.59
2022-10-29T08:36:59.538Z,99341.38
2022-10-29T08:39:28.772Z,99309.81
2022-10-29T08:42:11.818Z,99331.94
2022-10-29T08:45:06.840Z,99333.69
2022-10-29T08:47:55.206Z,99305.44
2022-10-29T08:50:30.565Z,99333.69
2022-10-29T08:55:54.170Z,99337.06
2022-10-29T08:58:32.758Z,99332.59
2022-10-29T09:01:02.301Z,99300.66
2022-10-29T09:03:34.128Z,99307.34
2022-10-29T09:06:17.931Z,99311.38
2022-10-29T09:08:59.090Z,99290.47
2022-10-29T09:11:50.544Z,99306.16
2022-10-29T09:14:35.124Z,99297.44
2022-10-29T09:17:15.862Z,99294.88
2022-10-29T09:20:07.179Z,99292.06
2022-10-29T09:22:42.367Z,99280.91
2022-10-29T09:25:24.172Z,99270.50
2022-10-29T09:28:08.295Z,99269.75
2022-10-29T09:30:44.064Z,99258.06
2022-10-29T09:33:19.012Z,99256.13
2022-10-29T09:35:56.069Z,99245.75
2022-10-29T09:38:29.644Z,99245.75
2022-10-29T09:41:00.855Z,99253.00
2022-10-29T09:43:48.777Z,99247.09
2022-10-29T09:46:29.262Z,99241.22
2022-10-29T09:49:08.021Z,99220.00
2022-10-29T09:51:48.054Z,99235.09
2022-10-29T09:54:23.323Z,99222.25
2022-10-29T09:56:54.843Z,99216.47
2022-10-29T09:59:31.385Z,99224.22
2022-10-29T10:02:01.255Z,99220.03
2022-10-29T10:04:34.103Z,99218.34
2022-10-29T10:07:08.605Z,99219.38
2022-10-29T10:09:59.428Z,99202.13
2022-10-29T10:12:30.767Z,99204.06
2022-10-29T10:15:04.970Z,99193.69
2022-10-29T10:17:56.638Z,99190.25
2022-10-29T10:20:33.925Z,99186.81
2022-10-29T10:23:24.182Z,99185.00
2022-10-29T10:26:03.712Z,99185.19
2022-10-29T10:28:36.084Z,99185.03
2022-10-29T10:31:12.381Z,99170.38
2022-10-29T10:33:52.600Z,99170.47
2022-10-29T10:36:25.281Z,99162.38
2022-10-29T10:41:46.424Z,99158.13
2022-10-29T10:44:15.712Z,99167.63
2022-10-29T10:46:51.411Z,99150.50
2022-10-29T10:49:31.919Z,99148.56
2022-10-29T10:52:04.770Z,99151.34
2022-10-29T10:54:41.505Z,99133.31
2022-10-29T10:57:23.921Z,99123.75
2022-10-29T11:00:04.399Z,99135.88
2022-10-29T11:02:46.935Z,99109.16
2022-10-29T11:05:20.034Z,99126.34
2022-10-29T11:07:57.091Z,99111.63
2022-10-29T11:10:36.002Z,99117.59
2022-10-29T11:13:08.964Z,99083.34
2022-10-29T11:15:42.775Z,99103.84
2022-10-29T11:18:20.044Z,99123.19
2022-10-29T11:20:55.570Z,99112.69
2022-10-29T11:23:35.769Z,99103.25
2022-10-29T11:26:17.762Z,99098.16
2022-10-29T11:28:56.117Z,99103.25
2022-10-29T11:31:33.145Z,99089.53
2022-10-29T11:34:13.637Z,99096.38
2022-10-29T11:36:56.849Z,99067.16
2022-10-29T11:39:33.344Z,99085.25
2022-10-29T11:42:06.621Z,99052.53
2022-10-29T11:44:46.390Z,99086.09
2022-10-29T11:47:34.465Z,99077.47
2022-10-29T11:50:27.125Z,99067.94
2022-10-29T11:53:04.218Z,99056.00
2022-10-29T11:55:48.643Z,99064.72
2022-10-29T11:58:24.308Z,99056.91
2022-10-29T12:01:01.899Z,99060.41
2022-10-29T12:03:56.962Z,99063.16
2022-10-29T12:06:33.702Z,99041.84
2022-10-29T12:09:28.532Z,99058.06
2022-10-29T12:12:04.834Z,99056.28
2022-10-29T12:14:43.903Z,99047.56
2022-10-29T12:17:19.732Z,99034.81
2022-10-29T12:19:56.643Z,99028.59
2022-10-29T12:22:36.447Z,99017.34
2022-10-29T12:25:26.581Z,99031.97
2022-10-29T12:28:06.807Z,99020.56
2022-10-29T12:30:47.378Z,99020.75
2022-10-29T12:33:27.666Z,99021.56
2022-10-29T12:36:04.812Z,99012.13
2022-10-29T12:38:42.866Z,99013.06
2022-10-29T12:41:19.005Z,99001.97
2022-10-29T12:43:50.000Z,99004.50
2022-10-29T12:46:33.753Z,99002.81
2022-10-29T12:58:50.554Z,98940.31
2022-10-29T13:02:12.697Z,98993.03
2022-10-29T13:05:02.915Z,98969.47
2022-10-29T13:07:40.151Z,98944.06
2022-10-29T13:10:39.831Z,98954.41
2022-10-29T13:13:36.350Z,98967.75
2022-10-29T13:16:09.501Z,98953.97
2022-10-29T13:18:50.383Z,98968.75
2022-10-29T13:21:49.098Z,98953.16
2022-10-29T13:24:18.932Z,98955.81
2022-10-29T13:27:29.720Z,98947.91
2022-10-29T13:30:23.495Z,98940.28
2022-10-29T13:32:58.802Z,98947.22
2022-10-29T13:35:46.325Z,98930.94
2022-10-29T13:38:17.794Z,98933.50
2022-10-29T13:41:15.413Z,98918.78
2022-10-29T13:43:54.994Z,98932.72
2022-10-29T13:46:51.188Z,98926.66
2022-10-29T13:49:30.646Z,98929.34
2022-10-29T13:52:08.173Z,98924.19
2022-10-29T13:54:41.989Z,98905.38
2022-10-29T13:57:21.776Z,98915.50
2022-10-29T13:59:56.152Z,98906.97
2022-10-29T14:02:38.822Z,98915.66
2022-10-29T14:05:16.207Z,98908.78
2022-10-29T14:07:52.466Z,98884.56
2022-10-29T14:10:26.077Z,98894.91
2022-10-29T14:12:59.763Z,98890.72
2022-10-29T14:18:26.793Z,98900.19
2022-10-29T14:21:00.439Z,98880.34
2022-10-29T14:23:30.919Z,98882.13
2022-10-29T14:28:47.176Z,98876.16
2022-10-29T14:31:18.980Z,98879.69
2022-10-29T14:34:01.088Z,98867.50
2022-10-29T14:36:34.975Z,98868.50
2022-10-29T14:41:50.043Z,98843.44
2022-10-29T14:44:21.357Z,98870.00
2022-10-29T14:46:58.004Z,98857.19
2022-10-29T14:49:30.426Z,98843.38
2022-10-29T14:52:03.242Z,98847.56
2022-10-29T14:54:36.963Z,98844.28
2022-10-29T14:57:11.856Z,98834.69
2022-10-29T14:59:45.098Z,98834.84
2022-10-29T15:05:25.895Z,98816.72
2022-10-29T15:08:12.125Z,98819.19
2022-10-29T15:10:48.300Z,98821.81
2022-10-29T15:13:25.300Z,98819.22
2022-10-29T15:16:01.464Z,98809.91
2022-10-29T15:21:23.383Z,98805.47
2022-10-29T15:23:57.724Z,98807.25
2022-10-29T15:26:26.910Z,98796.84
2022-10-29T15:28:58.008Z,98794.22
2022-10-29T15:31:32.911Z,98794.13
2022-10-29T15:34:11.315Z,98773.38
2022-10-29T15:36:53.137Z,98776.88
2022-10-29T15:39:26.338Z,98779.38
2022-10-29T15:41:58.324Z,98751.78
2022-10-29T15:44:33.893Z,98770.66
2022-10-29T15:47:04.908Z,98763.78
2022-10-29T15:49:34.125Z,98763.03
2022-10-29T15:52:06.032Z,98741.78
2022-10-29T15:54:41.037Z,98764.78
2022-10-29T15:57:12.594Z,98755.31
2022-10-29T15:59:42.370Z,98734.69
2022-10-29T16:02:13.968Z,98742.31
2022-10-29T16:04:43.581Z,98734.47
2022-10-29T16:07:17.298Z,98727.50
2022-10-29T16:09:50.024Z,98728.47
2022-10-29T16:12:19.461Z,98720.75
2022-10-29T16:14:48.552Z,98725.00
2022-10-29T16:17:20.525Z,98698.25
2022-10-29T16:19:49.300Z,98710.88
2022-10-29T16:22:33.592Z,98718.69
2022-10-29T16:25:02.986Z,98716.25
2022-10-29T16:27:32.636Z,98717.06
2022-10-29T16:30:01.774Z,98721.25
2022-10-29T16:32:33.408Z,98671.75
2022-10-29T16:35:02.625Z,98709.88
2022-10-29T16:37:34.390Z,98708.13
2022-10-29T16:40:03.710Z,98694.28
2022-10-29T16:42:35.953Z,98687.41
2022-10-29T16:45:05.567Z,98699.44
2022-10-29T16:47:34.753Z,98680.84
2022-10-29T16:50:03.984Z,98689.25
2022-10-29T16:52:35.102Z,98676.31
2022-10-29T16:55:04.499Z,98668.53
2022-10-29T16:57:33.609Z,98660.06
2022-10-29T17:00:02.820Z,98665.38
2022-10-29T17:02:34.158Z,98647.09
2022-10-29T17:05:03.479Z,98648.22
2022-10-29T17:07:34.561Z,98645.63
2022-10-29T17:10:03.796Z,98631.81
2022-10-29T17:12:33.142Z,98643.03
2022-10-29T17:15:02.391Z,98636.16
2022-10-29T17:17:33.530Z,98633.53
2022-10-29T17:20:02.691Z,98631.72
2022-10-29T17:22:35.043Z,98619.69
2022-10-29T17:25:03.995Z,98618.50
2022-10-29T17:27:33.136Z,98611.84
2022-10-29T17:30:08.647Z,98614.50
2022-10-29T17:32:38.262Z,98607.69
2022-10-29T17:35:08.423Z,98604.44
2022-10-29T17:37:39.896Z,98594.06
2022-10-29T17:40:10.311Z,98590.53
2022-10-29T17:42:39.390Z,98579.59
2022-10-29T17:45:10.242Z,98582.06
2022-10-29T17:50:29.620Z,98556.63
2022-10-29T17:53:00.725Z,98570.84
2022-10-29T17:55:35.260Z,98560.50
2022-10-29T17:58:42.771Z,98554.38
2022-10-29T18:01:12.162Z,98547.69
2022-10-29T18:03:41.761Z,98547.69
2022-10-29T18:06:12.710Z,98546.06
2022-10-29T18:08:45.077Z,98531.50
2022-10-29T18:11:16.706Z,98533.25
2022-10-29T18:13:47.219Z,98529.72
2022-10-29T18:16:18.017Z,98517.66
2022-10-29T18:19:01.430Z,98513.38
2022-10-29T18:21:41.549Z,98510.84
2022-10-29T18:24:18.947Z,98502.16
2022-10-29T18:26:52.363Z,98508.09
2022-10-29T18:29:21.533Z,98496.31
2022-10-29T18:31:50.599Z,98498.78
2022-10-29T18:34:33.908Z,98497.06
2022-10-29T18:37:02.706Z,98486.44
2022-10-29T18:39:33.935Z,98484.00
2022-10-29T18:42:03.549Z,98484.84
2022-10-29T18:44:32.886Z,98480.56
2022-10-29T18:47:02.134Z,98478.03
2022-10-29T18:49:31.234Z,98460.81
2022-10-29T18:52:05.599Z,98476.09
2022-10-29T18:54:36.922Z,98465.88
2022-10-29T18:57:19.272Z,98449.44
2022-10-29T18:59:48.783Z,98458.06
2022-10-29T19:02:18.193Z,98448.56
2022-10-29T19:04:47.456Z,98447.78
2022-10-29T19:07:19.309Z,98437.28
2022-10-29T19:09:50.901Z,98436.47
2022-10-29T19:12:20.138Z,98439.00
2022-10-29T19:14:52.422Z,98432.94
2022-10-29T19:17:21.794Z,98432.13
2022-10-29T19:19:50.835Z,98432.91
2022-10-29T19:22:25.166Z,98429.47
2022-10-29T19:25:01.447Z,98417.59
2022-10-29T19:27:33.082Z,98434.75
2022-10-29T19:30:02.870Z,98427.88
2022-10-29T19:32:33.217Z,98424.53
2022-10-29T19:35:09.171Z,98404.94
2022-10-29T19:37:38.920Z,98425.56
2022-10-29T19:40:15.431Z,98422.97
2022-10-29T19:42:44.564Z,98415.31
2022-10-29T19:45:13.715Z,98415.31
2022-10-29T19:47:43.546Z,98416.16
2022-10-29T19:50:12.833Z,98410.88
2022-10-29T19:52:42.364Z,98382.81
2022-10-29T19:55:19.781Z,98397.03
2022-10-29T19:57:49.207Z,98400.44
2022-10-29T20:00:19.611Z,98395.44
2022-10-29T20:02:48.744Z,98379.88
2022-10-29T20:05:29.371Z,98383.28
2022-10-29T20:07:58.985Z,98372.19
2022-10-29T20:10:30.618Z,98367.66
2022-10-29T20:13:07.949Z,98358.97
2022-10-29T20:15:37.662Z,98357.31
2022-10-29T20:18:07.431Z,98342.72
2022-10-29T20:20:36.741Z,98346.09
2022-10-29T20:23:05.843Z,98332.25
2022-10-29T20:25:36.946Z,98327.09
2022-10-29T20:28:06.465Z,98321.03
2022-10-29T20:30:35.688Z,98321.03
2022-10-29T20:33:04.802Z,98317.56
2022-10-29T20:35:38.872Z,98308.00
2022-10-29T20:38:08.481Z,98295.84
2022-10-29T20:40:39.625Z,98285.44
2022-10-29T20:43:11.008Z,98285.28
2022-10-29T20:45:45.323Z,98285.22
2022-10-29T20:48:14.650Z,98270.72
2022-10-29T20:50:43.882Z,98265.44
2022-10-29T20:53:12.914Z,98268.72
2022-10-29T20:55:44.168Z,98262.56
2022-10-29T20:58:18.424Z,98250.63
2022-10-29T21:00:47.748Z,98252.28
2022-10-29T21:03:18.421Z,98242.88
2022-10-29T21:08:30.432Z,98222.91
2022-10-29T21:11:07.798Z,98233.31
2022-10-29T21:13:37.384Z,98223.78
2022-10-29T21:16:08.078Z,98220.25
2022-10-29T21:18:41.002Z,98220.22
2022-10-29T21:21:10.973Z,98214.16
2022-10-29T21:23:40.579Z,98212.41
2022-10-29T21:26:14.029Z,98201.94
2022-10-29T21:28:43.319Z,98194.19
2022-10-29T21:31:17.695Z,98189.88
2022-10-29T21:33:47.285Z,98189.00
2022-10-29T21:36:16.475Z,98182.94
2022-10-29T21:38:45.881Z,98185.41
2022-10-29T21:41:17.755Z,98179.41
2022-10-29T21:43:53.227Z,98173.38
2022-10-29T21:46:22.342Z,98170.97
2022-10-29T21:48:51.545Z,98173.38
2022-10-29T21:51:25.702Z,98164.00
2022-10-29T21:53:58.634Z,98163.16
2022-10-29T21:56:29.812Z,98154.50
2022-10-29T21:58:59.132Z,98151.97
2022-10-29T22:01:32.096Z,98146.88
2022-10-29T22:04:05.312Z,98144.94
2022-10-29T22:06:34.395Z,98141.34
2022-10-29T22:09:03.595Z,98134.50
2022-10-29T22:11:35.021Z,98127.56
2022-10-29T22:14:04.254Z,98137.16
2022-10-29T22:16:33.411Z,98123.25
2022-10-29T22:19:07.854Z,98123.31
2022-10-29T22:21:37.021Z,98106.94
2022-10-29T22:24:07.113Z,98104.81
2022-10-29T22:26:38.304Z,98116.50
2022-10-29T22:29:07.516Z,98110.44
2022-10-29T22:33:14.759Z,98094.47
2022-10-29T22:34:29.242Z,98095.22
2022-10-29T22:36:58.535Z,98084.09
2022-10-29T22:39:28.172Z,98090.88
2022-10-29T22:41:59.327Z,98084.06
2022-10-29T22:44:28.555Z,98082.22
2022-10-29T22:46:57.581Z,98079.72
2022-10-29T22:49:29.436Z,98094.38
2022-10-29T22:52:01.467Z,98062.56
2022-10-29T22:54:36.107Z,98069.31
2022-10-29T22:59:52.050Z,98057.28
2022-10-29T23:02:27.953Z,98059.78
2022-10-29T23:04:57.458Z,98022.72
2022-10-29T23:07:26.549Z,98048.81
2022-10-29T23:09:55.721Z,98047.19
2022-10-29T23:12:26.906Z,98047.19
2022-10-29T23:15:04.223Z,98040.25
2022-10-29T23:17:33.527Z,98031.59
2022-10-29T23:20:02.655Z,98027.31
2022-10-29T23:22:38.130Z,98017.91
2022-10-29T23:25:08.187Z,98011.34
2022-10-29T23:27:44.357Z,98025.78
2022-10-29T23:30:14.617Z,98024.81
2022-10-29T23:32:46.104Z,98011.75
2022-10-29T23:35:15.385Z,98010.75
2022-10-29T23:37:44.549Z,98006.25
2022-10-29T23:40:14.559Z,98005.31
2022-10-29T23:42:45.523Z,97999.13
2022-10-29T23:45:21.594Z,98004.09
2022-10-29T23:47:50.743Z,98002.38
2022-10-29T23:50:19.815Z,97996.00
2022-10-29T23:52:54.063Z,97996.00
2022-10-29T23:55:23.169Z,97996.56
